createdAt,value
2017-11-18T00:00:35.985Z,101307.38
2017-11-18T00:03:03.387Z,101301.47
2017-11-18T00:05:30.793Z,101302.58
2017-11-18T00:07:58.187Z,101306.30
2017-11-18T00:10:25.599Z,101308.05
2017-11-18T00:12:52.999Z,101314.06
2017-11-18T00:15:20.408Z,101307.31
2017-11-18T00:17:47.799Z,101305.28
2017-11-18T00:20:15.206Z,101303.41
2017-11-18T00:22:42.624Z,101302.14
2017-11-18T00:25:10.012Z,101304.91
2017-11-18T00:27:37.444Z,101304.33
2017-11-18T00:30:04.827Z,101292.74
2017-11-18T00:32:32.233Z,101295.85
2017-11-18T00:34:59.636Z,101287.22
2017-11-18T00:37:27.047Z,101295.81
2017-11-18T00:39:54.444Z,101288.61
2017-11-18T00:42:21.834Z,101286.79
2017-11-18T00:44:49.236Z,101285.13
2017-11-18T00:47:16.624Z,101296.79
2017-11-18T00:49:44.019Z,101291.00
2017-11-18T00:52:11.412Z,101291.34
2017-11-18T00:54:38.827Z,101286.44
2017-11-18T00:57:06.224Z,101281.98
2017-11-18T00:59:33.646Z,101288.10
2017-11-18T01:02:01.043Z,101290.40
2017-11-18T01:04:28.427Z,101293.03
2017-11-18T01:06:55.881Z,101287.52
2017-11-18T01:09:23.277Z,101280.78
2017-11-18T01:11:50.667Z,101285.93
2017-11-18T01:14:18.075Z,101287.42
2017-11-18T01:16:45.493Z,101286.31
2017-11-18T01:19:12.872Z,101286.69
2017-11-18T01:21:40.280Z,101268.98
2017-11-18T01:24:07.675Z,101266.72
2017-11-18T01:26:35.067Z,101269.69
2017-11-18T01:29:02.460Z,101271.85
2017-11-18T01:31:29.847Z,101269.26
2017-11-18T01:33:57.244Z,101263.72
2017-11-18T01:36:24.627Z,101257.14
2017-11-18T01:38:52.031Z,101259.66
2017-11-18T01:41:19.426Z,101256.85
2017-11-18T01:43:46.827Z,101254.30
2017-11-18T01:46:14.227Z,101253.03
2017-11-18T01:48:41.635Z,101251.25
2017-11-18T01:51:09.024Z,101247.72
2017-11-18T01:53:36.421Z,101247.38
2017-11-18T01:56:03.821Z,101243.98
2017-11-18T01:58:31.224Z,101234.02
2017-11-18T02:00:58.624Z,101230.11
2017-11-18T02:03:26.108Z,101231.63
2017-11-18T02:05:53.485Z,101231.00
2017-11-18T02:08:20.887Z,101222.78
2017-11-18T02:10:48.336Z,101213.97
2017-11-18T02:13:15.737Z,101212.53
2017-11-18T02:15:43.129Z,101204.70
2017-11-18T02:18:10.543Z,101208.65
2017-11-18T02:20:37.976Z,101199.33
2017-11-18T02:23:05.389Z,101193.20
2017-11-18T02:25:32.824Z,101189.88
2017-11-18T02:28:00.233Z,101186.13
2017-11-18T02:30:27.674Z,101176.17
2017-11-18T02:32:55.068Z,101180.97
2017-11-18T02:35:22.468Z,101176.05
2017-11-18T02:37:49.894Z,101175.36
2017-11-18T02:40:17.295Z,101166.34
2017-11-18T02:42:44.708Z,101171.73
2017-11-18T02:45:12.129Z,101174.30
2017-11-18T02:47:39.550Z,101171.18
2017-11-18T02:50:06.945Z,101169.73
2017-11-18T02:52:34.359Z,101163.16
2017-11-18T02:55:01.756Z,101152.91
2017-11-18T02:57:29.147Z,101157.66
2017-11-18T02:59:56.567Z,101155.28
2017-11-18T03:02:23.969Z,101143.94
2017-11-18T03:04:51.374Z,101143.55
2017-11-18T03:07:18.785Z,101143.88
2017-11-18T03:09:46.179Z,101153.09
2017-11-18T03:12:13.583Z,101142.92
2017-11-18T03:14:40.980Z,101143.80
2017-11-18T03:17:08.426Z,101151.62
2017-11-18T03:19:35.846Z,101148.00
2017-11-18T03:22:03.257Z,101147.30
2017-11-18T03:24:30.664Z,101142.36
2017-11-18T03:26:58.060Z,101138.79
2017-11-18T03:29:25.485Z,101136.62
2017-11-18T03:31:52.892Z,101132.47
2017-11-18T03:34:20.288Z,101143.02
2017-11-18T03:36:47.687Z,101135.92
2017-11-18T03:39:15.101Z,101132.94
2017-11-18T03:41:42.510Z,101135.42
2017-11-18T03:44:09.941Z,101131.77
2017-11-18T03:46:37.344Z,101130.30
2017-11-18T03:49:04.736Z,101133.06
2017-11-18T03:51:32.153Z,101131.75
2017-11-18T03:53:59.543Z,101138.77
2017-11-18T03:56:26.971Z,101132.91
2017-11-18T03:58:54.372Z,101131.26
2017-11-18T04:01:21.781Z,101129.98
2017-11-18T04:03:49.260Z,101126.25
2017-11-18T04:06:16.657Z,101122.81
2017-11-18T04:08:44.087Z,101121.23
2017-11-18T04:11:11.496Z,101120.81
2017-11-18T04:13:38.923Z,101115.33
2017-11-18T04:16:06.336Z,101112.73
2017-11-18T04:18:33.731Z,101114.69
2017-11-18T04:21:01.139Z,101111.72
2017-11-18T04:23:28.544Z,101107.16
2017-11-18T04:25:55.981Z,101102.95
2017-11-18T04:28:23.377Z,101103.80
2017-11-18T04:30:50.789Z,101103.62
2017-11-18T04:33:18.181Z,101095.25
2017-11-18T04:35:45.588Z,101103.40
2017-11-18T04:38:13.011Z,101096.17
2017-11-18T04:40:40.411Z,101096.81
2017-11-18T04:43:07.817Z,101098.76
2017-11-18T04:45:35.223Z,101092.99
2017-11-18T04:48:02.642Z,101086.11
2017-11-18T04:50:30.092Z,101085.52
2017-11-18T04:52:57.492Z,101086.02
2017-11-18T04:55:24.899Z,101086.64
2017-11-18T04:57:52.304Z,101084.94
2017-11-18T05:00:19.692Z,101075.58
2017-11-18T05:02:47.110Z,101077.39
2017-11-18T05:05:14.506Z,101071.99
2017-11-18T05:07:41.908Z,101069.91
2017-11-18T05:10:09.362Z,101064.26
2017-11-18T05:12:36.785Z,101067.30
2017-11-18T05:15:04.192Z,101066.88
2017-11-18T05:17:31.612Z,101066.04
2017-11-18T05:19:59.020Z,101065.85
2017-11-18T05:22:26.424Z,101054.91
2017-11-18T05:24:53.821Z,101057.27
2017-11-18T05:27:21.220Z,101053.33
2017-11-18T05:29:48.639Z,101063.96
2017-11-18T05:32:16.041Z,101056.67
2017-11-18T05:34:43.435Z,101062.29
2017-11-18T05:37:10.855Z,101062.68
2017-11-18T05:39:38.258Z,101057.77
2017-11-18T05:42:05.675Z,101054.50
2017-11-18T05:44:33.116Z,101044.31
2017-11-18T05:47:00.549Z,101037.77
2017-11-18T05:49:27.956Z,101036.07
2017-11-18T05:51:55.348Z,101035.63
2017-11-18T05:54:22.755Z,101027.22
2017-11-18T05:56:50.205Z,101026.41
2017-11-18T05:59:17.940Z,101030.14
2017-11-18T06:01:45.343Z,101031.03
2017-11-18T06:04:12.761Z,101032.69
2017-11-18T06:06:40.169Z,101026.77
2017-11-18T06:09:07.567Z,101028.64
2017-11-18T06:11:34.989Z,101029.73
2017-11-18T06:14:02.393Z,101032.24
2017-11-18T06:16:29.822Z,101035.89
2017-11-18T06:18:57.230Z,101037.16
2017-11-18T06:21:24.652Z,101049.02
2017-11-18T06:23:52.099Z,101038.05
2017-11-18T06:26:19.513Z,101043.73
2017-11-18T06:28:46.953Z,101040.70
2017-11-18T06:31:14.375Z,101029.26
2017-11-18T06:33:41.795Z,101023.29
2017-11-18T06:36:09.195Z,101019.06
2017-11-18T06:38:36.616Z,101020.59
2017-11-18T06:41:04.063Z,101022.39
2017-11-18T06:43:31.466Z,101023.45
2017-11-18T06:45:58.915Z,101020.82
2017-11-18T06:48:26.329Z,101025.09
2017-11-18T06:50:53.744Z,101032.50
2017-11-18T06:53:21.152Z,101035.34
2017-11-18T06:55:48.583Z,101040.67
2017-11-18T06:58:15.993Z,101028.02
2017-11-18T07:00:43.407Z,101028.05
2017-11-18T07:03:10.836Z,101025.70
2017-11-18T07:05:38.272Z,101018.26
2017-11-18T07:08:05.679Z,101028.47
2017-11-18T07:10:33.080Z,101022.89
2017-11-18T07:13:00.491Z,101022.16
2017-11-18T07:15:27.914Z,101013.86
2017-11-18T07:17:55.369Z,101012.42
2017-11-18T07:20:22.808Z,101022.11
2017-11-18T07:22:50.208Z,101023.84
2017-11-18T07:25:17.692Z,101023.20
2017-11-18T07:27:45.099Z,101017.76
2017-11-18T07:30:12.795Z,101020.12
2017-11-18T07:32:40.204Z,101031.06
2017-11-18T07:35:07.629Z,101029.61
2017-11-18T07:37:35.085Z,101031.88
2017-11-18T07:40:02.507Z,101027.39
2017-11-18T07:42:29.976Z,101024.55
2017-11-18T07:44:57.372Z,101028.64
2017-11-18T07:47:24.775Z,101025.02
2017-11-18T07:49:52.185Z,101022.88
2017-11-18T07:52:19.592Z,101023.61
2017-11-18T07:54:47.028Z,101023.66
2017-11-18T07:57:14.432Z,101027.45
2017-11-18T07:59:41.842Z,101030.77
2017-11-18T08:02:09.252Z,101021.30
2017-11-18T08:04:36.696Z,101024.80
2017-11-18T08:07:04.098Z,101026.31
2017-11-18T08:09:31.515Z,101026.70
2017-11-18T08:11:58.936Z,101023.27
2017-11-18T08:14:26.321Z,101018.20
2017-11-18T08:16:53.716Z,101017.23
2017-11-18T08:19:21.111Z,101018.66
2017-11-18T08:21:48.523Z,101011.80
2017-11-18T08:24:15.949Z,101008.37
2017-11-18T08:26:43.356Z,101006.74
2017-11-18T08:29:10.789Z,101006.28
2017-11-18T08:31:38.167Z,101009.53
2017-11-18T08:34:05.571Z,100999.64
2017-11-18T08:36:36.729Z,100994.11
2017-11-18T08:39:05.049Z,100987.94
2017-11-18T08:41:32.488Z,100990.97
2017-11-18T08:44:00.122Z,100984.64
2017-11-18T08:46:27.580Z,100975.50
2017-11-18T08:48:55.010Z,100973.08
2017-11-18T08:51:22.429Z,100976.81
2017-11-18T08:53:49.849Z,100970.78
2017-11-18T08:56:17.285Z,100969.13
2017-11-18T08:58:44.768Z,100966.15
2017-11-18T09:01:12.244Z,100955.19
2017-11-18T09:03:39.627Z,100971.11
2017-11-18T09:06:07.027Z,100963.55
2017-11-18T09:08:34.431Z,100954.77
2017-11-18T09:11:01.840Z,100949.58
2017-11-18T09:13:29.248Z,100957.94
2017-11-18T09:15:56.655Z,100952.41
2017-11-18T09:18:24.057Z,100947.55
2017-11-18T09:20:51.495Z,100942.50
2017-11-18T09:23:18.888Z,100937.48
2017-11-18T09:25:46.316Z,100937.90
2017-11-18T09:28:13.705Z,100935.46
2017-11-18T09:30:41.160Z,100932.05
2017-11-18T09:33:08.603Z,100928.31
2017-11-18T09:35:35.998Z,100932.37
2017-11-18T09:38:03.440Z,100925.84
2017-11-18T09:40:30.841Z,100926.93
2017-11-18T09:42:58.285Z,100919.16
2017-11-18T09:45:25.731Z,100910.05
2017-11-18T09:47:53.131Z,100899.89
2017-11-18T09:50:20.553Z,100904.70
2017-11-18T09:52:47.964Z,100897.08
2017-11-18T09:55:15.411Z,100901.80
2017-11-18T09:57:42.832Z,100903.38
2017-11-18T10:00:11.069Z,100904.28
2017-11-18T10:02:38.479Z,100904.20
2017-11-18T10:05:05.873Z,100898.83
2017-11-18T10:07:35.173Z,100894.87
2017-11-18T10:10:02.647Z,100896.17
2017-11-18T10:12:30.063Z,100900.38
2017-11-18T10:14:57.493Z,100899.25
2017-11-18T10:17:24.909Z,100894.10
2017-11-18T10:19:52.580Z,100888.66
2017-11-18T10:22:20.041Z,100880.22
2017-11-18T10:24:47.463Z,100887.48
2017-11-18T10:27:14.915Z,100882.45
2017-11-18T10:29:42.314Z,100880.12
2017-11-18T10:32:09.711Z,100875.66
2017-11-18T10:34:40.190Z,100875.39
2017-11-18T10:37:07.591Z,100865.98
2017-11-18T10:39:35.024Z,100864.98
2017-11-18T10:42:02.419Z,100866.46
2017-11-18T10:44:29.828Z,100865.41
2017-11-18T10:46:57.261Z,100866.37
2017-11-18T10:49:25.651Z,100865.46
2017-11-18T10:51:53.065Z,100860.77
2017-11-18T10:54:20.492Z,100851.96
2017-11-18T10:56:47.890Z,100859.71
2017-11-18T10:59:15.273Z,100862.22
2017-11-18T11:01:42.668Z,100851.59
2017-11-18T11:04:10.074Z,100847.37
2017-11-18T11:06:37.471Z,100847.73
2017-11-18T11:09:04.898Z,100851.82
2017-11-18T11:11:32.331Z,100839.06
2017-11-18T11:13:59.727Z,100834.33
2017-11-18T11:16:27.128Z,100835.81
2017-11-18T11:18:54.584Z,100832.48
2017-11-18T11:21:21.984Z,100824.55
2017-11-18T11:23:49.369Z,100822.58
2017-11-18T11:26:16.760Z,100814.45
2017-11-18T11:28:44.155Z,100815.94
2017-11-18T11:31:11.544Z,100807.99
2017-11-18T11:33:38.952Z,100804.65
2017-11-18T11:36:06.343Z,100797.09
2017-11-18T11:38:33.736Z,100779.44
2017-11-18T11:41:01.135Z,100777.22
2017-11-18T11:43:28.522Z,100776.64
2017-11-18T11:45:55.920Z,100764.81
2017-11-18T11:48:23.312Z,100753.70
2017-11-18T11:50:50.711Z,100748.65
2017-11-18T11:53:18.146Z,100747.09
2017-11-18T11:55:45.541Z,100748.52
2017-11-18T11:58:12.927Z,100744.55
2017-11-18T12:00:40.331Z,100752.98
2017-11-18T12:03:07.711Z,100748.66
2017-11-18T12:05:35.116Z,100740.89
2017-11-18T12:08:02.512Z,100740.58
2017-11-18T12:10:29.905Z,100736.21
2017-11-18T12:12:57.303Z,100735.88
2017-11-18T12:15:24.700Z,100732.42
2017-11-18T12:17:52.103Z,100725.20
2017-11-18T12:20:19.518Z,100726.75
2017-11-18T12:22:46.903Z,100707.58
2017-11-18T12:25:14.300Z,100707.98
2017-11-18T12:27:41.700Z,100706.33
2017-11-18T12:30:09.111Z,100710.89
2017-11-18T12:32:36.503Z,100707.13
2017-11-18T12:35:03.896Z,100708.34
2017-11-18T12:37:31.291Z,100700.66
2017-11-18T12:39:58.686Z,100700.51
2017-11-18T12:42:26.083Z,100697.22
2017-11-18T12:44:53.505Z,100703.84
2017-11-18T12:47:20.899Z,100697.42
2017-11-18T12:49:48.296Z,100687.08
2017-11-18T12:52:15.684Z,100689.41
2017-11-18T12:54:44.047Z,100676.48
2017-11-18T12:57:11.459Z,100686.86
2017-11-18T12:59:38.855Z,100686.92
2017-11-18T13:02:06.261Z,100686.34
2017-11-18T13:04:33.639Z,100685.75
2017-11-18T13:07:01.040Z,100689.92
2017-11-18T13:09:28.459Z,100688.03
2017-11-18T13:11:55.861Z,100676.63
2017-11-18T13:14:23.628Z,100663.27
2017-11-18T13:16:51.056Z,100653.61
2017-11-18T13:19:18.436Z,100649.73
2017-11-18T13:21:45.832Z,100630.31
2017-11-18T13:24:13.241Z,100629.18
2017-11-18T13:26:40.627Z,100653.45
2017-11-18T13:29:08.029Z,100654.37
2017-11-18T13:31:35.491Z,100652.88
2017-11-18T13:34:02.901Z,100642.01
2017-11-18T13:36:30.288Z,100628.13
2017-11-18T13:38:58.343Z,100634.16
2017-11-18T13:41:25.744Z,100627.06
2017-11-18T13:43:54.104Z,100632.50
2017-11-18T13:46:21.500Z,100629.09
2017-11-18T13:48:48.979Z,100632.08
2017-11-18T13:51:16.376Z,100627.59
2017-11-18T13:53:43.763Z,100627.26
2017-11-18T13:56:11.241Z,100636.09
2017-11-18T13:58:39.658Z,100640.17
2017-11-18T14:01:07.056Z,100623.98
2017-11-18T14:03:34.452Z,100629.23
2017-11-18T14:06:01.972Z,100626.03
2017-11-18T14:08:29.388Z,100628.89
2017-11-18T14:10:56.855Z,100623.09
2017-11-18T14:13:24.239Z,100606.97
2017-11-18T14:15:51.723Z,100606.52
2017-11-18T14:18:19.108Z,100612.69
2017-11-18T14:20:46.512Z,100594.39
2017-11-18T14:23:13.927Z,100601.30
2017-11-18T14:25:41.336Z,100595.36
2017-11-18T14:28:09.570Z,100600.39
2017-11-18T14:30:36.961Z,100597.85
2017-11-18T14:33:04.769Z,100599.70
2017-11-18T14:35:32.172Z,100585.22
2017-11-18T14:37:59.564Z,100590.69
2017-11-18T14:40:26.959Z,100592.61
2017-11-18T14:42:55.144Z,100601.52
2017-11-18T14:45:22.545Z,100599.76
2017-11-18T14:47:50.856Z,100594.94
2017-11-18T14:50:18.297Z,100600.13
2017-11-18T14:52:45.693Z,100592.75
2017-11-18T14:55:13.087Z,100587.72
2017-11-18T14:57:47.026Z,100586.98
2017-11-18T15:00:14.907Z,100597.17
2017-11-18T15:02:43.484Z,100595.27
2017-11-18T15:05:10.862Z,100584.28
2017-11-18T15:07:38.272Z,100578.68
2017-11-18T15:10:05.656Z,100576.03
2017-11-18T15:12:33.811Z,100574.22
2017-11-18T15:15:06.877Z,100578.73
2017-11-18T15:17:40.928Z,100581.31
2017-11-18T15:20:13.896Z,100580.19
2017-11-18T15:22:44.599Z,100583.06
2017-11-18T15:25:17.500Z,100580.83
2017-11-18T15:27:50.584Z,100577.62
2017-11-18T15:30:24.402Z,100578.98
2017-11-18T15:33:05.566Z,100580.89
2017-11-18T15:35:38.350Z,100577.88
2017-11-18T15:41:12.667Z,100580.04
2017-11-18T15:47:04.680Z,100571.34
2017-11-18T15:49:37.802Z,100570.81
2017-11-18T15:52:05.660Z,100574.83
2017-11-18T15:57:37.935Z,100571.27
2017-11-18T16:00:06.499Z,100571.12
2017-11-18T16:02:35.417Z,100564.75
2017-11-18T16:05:12.724Z,100562.06
2017-11-18T16:07:43.520Z,100558.20
2017-11-18T16:10:19.078Z,100566.21
2017-11-18T16:12:46.485Z,100552.54
2017-11-18T16:15:13.907Z,100553.38
2017-11-18T16:17:41.304Z,100552.00
2017-11-18T16:20:08.687Z,100554.65
2017-11-18T16:22:36.088Z,100556.49
2017-11-18T16:25:03.478Z,100558.19
2017-11-18T16:27:30.867Z,100531.89
2017-11-18T16:29:58.256Z,100543.11
2017-11-18T16:32:25.661Z,100537.87
2017-11-18T16:34:53.053Z,100529.52
2017-11-18T16:37:21.634Z,100525.30
2017-11-18T16:39:50.248Z,100525.49
2017-11-18T16:42:17.717Z,100535.47
2017-11-18T16:44:54.924Z,100529.54
2017-11-18T16:47:22.344Z,100525.72
2017-11-18T16:49:50.271Z,100530.23
2017-11-18T16:52:23.124Z,100529.59
2017-11-18T16:54:50.520Z,100520.46
2017-11-18T16:57:17.950Z,100530.50
2017-11-18T16:59:45.352Z,100525.81
2017-11-18T17:02:13.203Z,100519.63
2017-11-18T17:04:41.063Z,100513.23
2017-11-18T17:07:08.468Z,100519.66
2017-11-18T17:09:35.879Z,100518.80
2017-11-18T17:12:03.271Z,100515.08
2017-11-18T17:14:30.664Z,100513.12
2017-11-18T17:16:58.061Z,100518.24
2017-11-18T17:19:25.452Z,100510.95
2017-11-18T17:21:52.840Z,100510.64
2017-11-18T17:24:20.239Z,100508.47
2017-11-18T17:26:47.631Z,100510.16
2017-11-18T17:29:15.040Z,100511.39
2017-11-18T17:31:42.429Z,100505.87
2017-11-18T17:34:09.816Z,100506.89
2017-11-18T17:36:37.211Z,100497.71
2017-11-18T17:39:04.611Z,100494.72
2017-11-18T17:41:32.038Z,100494.05
2017-11-18T17:43:59.439Z,100489.06
2017-11-18T17:46:26.844Z,100495.75
2017-11-18T17:48:54.239Z,100494.81
2017-11-18T17:51:21.623Z,100499.39
2017-11-18T17:53:49.032Z,100492.90
2017-11-18T17:56:16.416Z,100492.72
2017-11-18T17:58:43.812Z,100485.64
2017-11-18T18:01:11.204Z,100490.31
2017-11-18T18:03:38.604Z,100484.73
2017-11-18T18:06:05.997Z,100482.97
2017-11-18T18:08:33.392Z,100476.55
2017-11-18T18:11:00.788Z,100476.94
2017-11-18T18:13:28.179Z,100467.47
2017-11-18T18:15:55.571Z,100476.20
2017-11-18T18:18:22.968Z,100467.55
2017-11-18T18:20:50.375Z,100473.69
2017-11-18T18:23:17.776Z,100467.16
2017-11-18T18:25:45.175Z,100455.60
2017-11-18T18:28:12.584Z,100441.42
2017-11-18T18:30:39.977Z,100449.00
2017-11-18T18:33:07.379Z,100456.33
2017-11-18T18:35:34.759Z,100453.92
2017-11-18T18:38:02.164Z,100443.03
2017-11-18T18:40:29.577Z,100442.68
2017-11-18T18:42:56.967Z,100450.50
2017-11-18T18:45:24.368Z,100446.06
2017-11-18T18:47:51.780Z,100441.80
2017-11-18T18:50:19.167Z,100439.49
2017-11-18T18:52:46.559Z,100428.28
2017-11-18T18:55:13.983Z,100432.51
2017-11-18T18:57:41.363Z,100445.25
2017-11-18T19:00:08.765Z,100444.48
2017-11-18T19:02:36.164Z,100439.83
2017-11-18T19:05:03.556Z,100440.47
2017-11-18T19:07:30.948Z,100446.23
2017-11-18T19:09:58.344Z,100441.88
2017-11-18T19:12:25.739Z,100428.84
2017-11-18T19:14:53.127Z,100439.91
2017-11-18T19:17:20.537Z,100445.59
2017-11-18T19:19:47.928Z,100447.70
2017-11-18T19:22:15.320Z,100448.38
2017-11-18T19:24:42.748Z,100444.64
2017-11-18T19:27:10.145Z,100450.19
2017-11-18T19:29:37.838Z,100460.27
2017-11-18T19:32:05.240Z,100446.72
2017-11-18T19:34:32.643Z,100455.98
2017-11-18T19:37:00.039Z,100469.92
2017-11-18T19:39:27.447Z,100475.96
2017-11-18T19:41:54.843Z,100468.45
2017-11-18T19:44:22.251Z,100475.22
2017-11-18T19:46:49.652Z,100472.89
2017-11-18T19:49:17.055Z,100478.50
2017-11-18T19:51:44.454Z,100476.12
2017-11-18T19:54:11.847Z,100465.63
2017-11-18T19:56:40.203Z,100467.44
2017-11-18T19:59:07.611Z,100461.33
2017-11-18T20:01:35.025Z,100460.50
2017-11-18T20:04:02.423Z,100458.16
2017-11-18T20:06:29.848Z,100454.72
2017-11-18T20:08:57.267Z,100456.08
2017-11-18T20:11:37.952Z,100450.10
2017-11-18T20:14:05.400Z,100443.64
2017-11-18T20:16:32.772Z,100438.15
2017-11-18T20:19:00.163Z,100443.38
2017-11-18T20:21:27.560Z,100449.38
2017-11-18T20:23:55.012Z,100445.08
2017-11-18T20:26:22.396Z,100437.67
2017-11-18T20:28:49.791Z,100439.73
2017-11-18T20:31:17.247Z,100439.34
2017-11-18T20:33:44.633Z,100442.41
2017-11-18T20:36:12.028Z,100431.67
2017-11-18T20:38:39.491Z,100435.08
2017-11-18T20:41:06.921Z,100435.50
2017-11-18T20:43:40.854Z,100427.69
2017-11-18T20:46:08.272Z,100440.57
2017-11-18T20:48:36.548Z,100443.27
2017-11-18T20:51:03.939Z,100439.50
2017-11-18T20:53:32.368Z,100440.23
2017-11-18T20:55:59.876Z,100431.70
2017-11-18T20:58:27.276Z,100433.23
2017-11-18T21:00:54.667Z,100421.31
2017-11-18T21:03:22.059Z,100418.48
2017-11-18T21:05:49.466Z,100421.31
2017-11-18T21:08:16.871Z,100415.31
2017-11-18T21:10:44.263Z,100410.70
2017-11-18T21:13:11.651Z,100402.75
2017-11-18T21:15:39.053Z,100400.20
2017-11-18T21:18:06.446Z,100408.26
2017-11-18T21:20:33.841Z,100400.69
2017-11-18T21:23:01.228Z,100389.74
2017-11-18T21:25:28.628Z,100392.78
2017-11-18T21:27:56.936Z,100401.04
2017-11-18T21:30:24.378Z,100396.64
2017-11-18T21:32:51.760Z,100396.13
2017-11-18T21:35:19.195Z,100390.29
2017-11-18T21:37:47.292Z,100389.99
2017-11-18T21:40:14.684Z,100386.36
2017-11-18T21:42:42.075Z,100388.94
2017-11-18T21:45:09.471Z,100382.39
2017-11-18T21:47:36.879Z,100387.16
2017-11-18T21:50:04.264Z,100394.27
2017-11-18T21:52:31.658Z,100392.50
2017-11-18T21:54:59.047Z,100396.20
2017-11-18T21:57:26.444Z,100396.36
2017-11-18T21:59:53.836Z,100394.52
2017-11-18T22:02:21.232Z,100395.98
2017-11-18T22:04:48.627Z,100389.86
2017-11-18T22:07:16.019Z,100388.22
2017-11-18T22:09:43.408Z,100384.27
2017-11-18T22:12:10.800Z,100379.91
2017-11-18T22:14:38.192Z,100385.52
2017-11-18T22:17:05.592Z,100384.41
2017-11-18T22:19:32.984Z,100385.59
2017-11-18T22:22:00.401Z,100375.62
2017-11-18T22:24:27.784Z,100379.81
2017-11-18T22:26:55.176Z,100374.64
2017-11-18T22:29:22.573Z,100375.47
2017-11-18T22:31:49.956Z,100374.15
2017-11-18T22:34:17.356Z,100373.24
2017-11-18T22:36:44.747Z,100363.03
2017-11-18T22:39:12.149Z,100355.19
2017-11-18T22:41:39.544Z,100362.50
2017-11-18T22:44:06.935Z,100356.97
2017-11-18T22:46:34.329Z,100352.89
2017-11-18T22:49:01.717Z,100356.66
2017-11-18T22:51:29.115Z,100356.38
2017-11-18T22:53:56.504Z,100360.95
2017-11-18T22:56:23.909Z,100369.17
2017-11-18T22:58:51.308Z,100358.19
2017-11-18T23:01:18.727Z,100356.45
2017-11-18T23:03:46.123Z,100350.19
2017-11-18T23:06:13.515Z,100340.36
2017-11-18T23:08:40.912Z,100316.02
2017-11-18T23:11:08.305Z,100303.42
2017-11-18T23:13:35.703Z,100315.28
2017-11-18T23:16:03.095Z,100316.01
2017-11-18T23:18:30.479Z,100305.93
2017-11-18T23:20:57.876Z,100318.30
2017-11-18T23:23:25.267Z,100315.58
2017-11-18T23:25:52.663Z,100314.67
2017-11-18T23:28:20.054Z,100310.62
2017-11-18T23:30:47.477Z,100306.86
2017-11-18T23:33:14.834Z,100319.80
2017-11-18T23:35:42.249Z,100318.28
2017-11-18T23:38:09.643Z,100315.45
2017-11-18T23:40:37.036Z,100315.39
2017-11-18T23:43:04.440Z,100312.96
2017-11-18T23:45:31.832Z,100321.95
2017-11-18T23:47:59.233Z,100319.31
2017-11-18T23:50:26.623Z,100316.59
2017-11-18T23:52:54.015Z,100319.23
2017-11-18T23:55:21.408Z,100312.41
2017-11-18T23:57:48.806Z,100308.44
